KIRK/IRK METAR and TAF weather

Enter ICAO airport designator
Station Type Date Time Source
KIRK METAR 2020/04/05 14:55 UTC NOAA

KIRK 051455Z AUTO 12006KT 10SM CLR 09/03 A3016 RMK AO2 SLP219 T00890028 50008


Station Type Date Time Source
KIRK Decoded METAR 2020/04/05 14:55 UTC NOAA

KIRKSVILLE REGIONAL AIRPORT , MO, United States (KIRK) 40-06N 092-33W 293M
Apr 05, 2020 - 10:55 AM EDT / 2020.04.05 1455 UTC
Wind: from the ESE (120 degrees) at 7 MPH (6 KT):0
Visibility: 10 mile(s):0
Sky conditions: clear
Temperature: 48.0 F (8.9 C)
Dew Point: 37.0 F (2.8 C)
Relative Humidity: 65%
Pressure (altimeter): 30.16 in. Hg (1021 hPa)
Pressure tendency: 0.02 inches (0.8 hPa) higher than three hours ago
ob: KIRK 051455Z AUTO 12006KT 10SM CLR 09/03 A3016 RMK AO2 SLP219 T00890028 50008
cycle: 15

Station Type Date Time Source
KIRK TAF UTC NOAA

Error!

Example: see airport list